sensor_id;sensor_type;location;lat;lon;timestamp;P1;durP1;ratioP1;P2;durP2;ratioP2
40945;SDS011;55635;50.264;11.918;2023-11-19T00:01:17;2.67;;;2.47;;
40945;SDS011;55635;50.264;11.918;2023-11-19T00:03:58;2.80;;;2.35;;
40945;SDS011;55635;50.264;11.918;2023-11-19T00:06:39;3.28;;;2.28;;
40945;SDS011;55635;50.264;11.918;2023-11-19T00:09:21;2.90;;;2.70;;
40945;SDS011;55635;50.264;11.918;2023-11-19T00:12:06;3.80;;;2.47;;
40945;SDS011;55635;50.264;11.918;2023-11-19T00:14:47;2.13;;;1.98;;
40945;SDS011;55635;50.264;11.918;2023-11-19T00:17:28;2.20;;;2.10;;
40945;SDS011;55635;50.264;11.918;2023-11-19T00:20:13;2.70;;;2.47;;
40945;SDS011;55635;50.264;11.918;2023-11-19T00:22:58;2.58;;;2.38;;
40945;SDS011;55635;50.264;11.918;2023-11-19T00:25:41;2.55;;;2.35;;
40945;SDS011;55635;50.264;11.918;2023-11-19T00:28:22;3.40;;;2.30;;
40945;SDS011;55635;50.264;11.918;2023-11-19T00:31:04;2.65;;;2.40;;
40945;SDS011;55635;50.264;11.918;2023-11-19T00:33:45;2.63;;;2.42;;
40945;SDS011;55635;50.264;11.918;2023-11-19T00:36:26;2.40;;;2.20;;
40945;SDS011;55635;50.264;11.918;2023-11-19T00:39:08;2.05;;;1.88;;
40945;SDS011;55635;50.264;11.918;2023-11-19T00:41:49;2.60;;;2.40;;
40945;SDS011;55635;50.264;11.918;2023-11-19T00:44:30;2.38;;;2.17;;
40945;SDS011;55635;50.264;11.918;2023-11-19T00:47:11;4.00;;;2.78;;
40945;SDS011;55635;50.264;11.918;2023-11-19T00:49:52;2.60;;;2.40;;
40945;SDS011;55635;50.264;11.918;2023-11-19T00:52:33;2.20;;;2.00;;
40945;SDS011;55635;50.264;11.918;2023-11-19T00:55:14;2.53;;;2.22;;
40945;SDS011;55635;50.264;11.918;2023-11-19T00:57:55;2.38;;;2.17;;
40945;SDS011;55635;50.264;11.918;2023-11-19T01:00:36;2.03;;;1.83;;
40945;SDS011;55635;50.264;11.918;2023-11-19T01:03:18;2.35;;;2.15;;
40945;SDS011;55635;50.264;11.918;2023-11-19T01:05:58;2.97;;;2.65;;
40945;SDS011;55635;50.264;11.918;2023-11-19T01:08:42;2.72;;;2.53;;
40945;SDS011;55635;50.264;11.918;2023-11-19T01:11:24;3.20;;;2.90;;
40945;SDS011;55635;50.264;11.918;2023-11-19T01:14:06;3.08;;;2.80;;
40945;SDS011;55635;50.264;11.918;2023-11-19T01:16:47;3.30;;;3.00;;
40945;SDS011;55635;50.264;11.918;2023-11-19T01:19:31;2.75;;;2.55;;
40945;SDS011;55635;50.264;11.918;2023-11-19T01:22:12;3.17;;;2.50;;
40945;SDS011;55635;50.264;11.918;2023-11-19T01:24:53;3.08;;;2.78;;
40945;SDS011;55635;50.264;11.918;2023-11-19T01:27:34;2.47;;;2.28;;
40945;SDS011;55635;50.264;11.918;2023-11-19T01:30:15;2.60;;;2.40;;
40945;SDS011;55635;50.264;11.918;2023-11-19T01:32:56;2.25;;;2.05;;
40945;SDS011;55635;50.264;11.918;2023-11-19T01:35:37;2.58;;;2.38;;
40945;SDS011;55635;50.264;11.918;2023-11-19T01:38:19;4.85;;;3.03;;
40945;SDS011;55635;50.264;11.918;2023-11-19T01:41:00;3.33;;;3.00;;
40945;SDS011;55635;50.264;11.918;2023-11-19T01:43:44;4.57;;;3.33;;
40945;SDS011;55635;50.264;11.918;2023-11-19T01:46:27;3.90;;;3.25;;
40945;SDS011;55635;50.264;11.918;2023-11-19T01:49:09;4.13;;;3.63;;
40945;SDS011;55635;50.264;11.918;2023-11-19T01:51:51;4.22;;;3.47;;
40945;SDS011;55635;50.264;11.918;2023-11-19T01:54:33;3.20;;;2.90;;
40945;SDS011;55635;50.264;11.918;2023-11-19T01:57:14;2.67;;;2.25;;
40945;SDS011;55635;50.264;11.918;2023-11-19T01:59:55;1.92;;;1.63;;
40945;SDS011;55635;50.264;11.918;2023-11-19T02:02:37;2.63;;;2.42;;
40945;SDS011;55635;50.264;11.918;2023-11-19T02:05:19;2.55;;;2.35;;
40945;SDS011;55635;50.264;11.918;2023-11-19T02:08:01;1.80;;;1.70;;
40945;SDS011;55635;50.264;11.918;2023-11-19T02:10:43;2.50;;;2.25;;
40945;SDS011;55635;50.264;11.918;2023-11-19T02:13:25;2.65;;;2.45;;
40945;SDS011;55635;50.264;11.918;2023-11-19T02:16:06;2.97;;;2.33;;
40945;SDS011;55635;50.264;11.918;2023-11-19T02:18:49;2.75;;;2.30;;
40945;SDS011;55635;50.264;11.918;2023-11-19T02:21:30;2.42;;;1.95;;
40945;SDS011;55635;50.264;11.918;2023-11-19T02:24:12;2.33;;;2.13;;
40945;SDS011;55635;50.264;11.918;2023-11-19T02:27:05;3.25;;;2.20;;
40945;SDS011;55635;50.264;11.918;2023-11-19T02:29:56;2.80;;;2.53;;
40945;SDS011;55635;50.264;11.918;2023-11-19T02:32:37;3.38;;;2.17;;
40945;SDS011;55635;50.264;11.918;2023-11-19T02:35:20;2.45;;;2.25;;
40945;SDS011;55635;50.264;11.918;2023-11-19T02:38:02;2.03;;;1.83;;
40945;SDS011;55635;50.264;11.918;2023-11-19T02:40:44;2.17;;;2.00;;
40945;SDS011;55635;50.264;11.918;2023-11-19T02:43:24;2.78;;;2.47;;
40945;SDS011;55635;50.264;11.918;2023-11-19T02:46:06;2.45;;;2.25;;
40945;SDS011;55635;50.264;11.918;2023-11-19T02:48:48;2.75;;;2.30;;
40945;SDS011;55635;50.264;11.918;2023-11-19T02:51:30;2.53;;;2.33;;
40945;SDS011;55635;50.264;11.918;2023-11-19T02:54:11;2.50;;;2.30;;
40945;SDS011;55635;50.264;11.918;2023-11-19T02:56:52;2.30;;;2.10;;
40945;SDS011;55635;50.264;11.918;2023-11-19T02:59:39;3.60;;;2.45;;
40945;SDS011;55635;50.264;11.918;2023-11-19T03:02:23;2.40;;;2.20;;
40945;SDS011;55635;50.264;11.918;2023-11-19T03:05:06;2.53;;;2.33;;
40945;SDS011;55635;50.264;11.918;2023-11-19T03:07:48;2.28;;;2.05;;
40945;SDS011;55635;50.264;11.918;2023-11-19T03:10:29;3.08;;;2.58;;
40945;SDS011;55635;50.264;11.918;2023-11-19T03:13:11;2.72;;;2.20;;
40945;SDS011;55635;50.264;11.918;2023-11-19T03:15:58;5.82;;;2.25;;
40945;SDS011;55635;50.264;11.918;2023-11-19T03:18:39;2.58;;;1.95;;
40945;SDS011;55635;50.264;11.918;2023-11-19T03:21:27;2.03;;;1.83;;
40945;SDS011;55635;50.264;11.918;2023-11-19T03:24:14;1.58;;;1.48;;
40945;SDS011;55635;50.264;11.918;2023-11-19T03:26:55;0.90;;;0.90;;
40945;SDS011;55635;50.264;11.918;2023-11-19T03:29:36;0.80;;;0.80;;
40945;SDS011;55635;50.264;11.918;2023-11-19T03:32:18;0.90;;;0.90;;
40945;SDS011;55635;50.264;11.918;2023-11-19T03:35:00;0.80;;;0.80;;
40945;SDS011;55635;50.264;11.918;2023-11-19T03:37:47;0.90;;;0.90;;
40945;SDS011;55635;50.264;11.918;2023-11-19T03:40:29;0.80;;;0.80;;
40945;SDS011;55635;50.264;11.918;2023-11-19T03:43:10;0.70;;;0.70;;
40945;SDS011;55635;50.264;11.918;2023-11-19T03:45:53;0.95;;;0.70;;
40945;SDS011;55635;50.264;11.918;2023-11-19T03:48:34;1.60;;;0.68;;
40945;SDS011;55635;50.264;11.918;2023-11-19T03:51:15;0.50;;;0.50;;
40945;SDS011;55635;50.264;11.918;2023-11-19T03:53:57;0.70;;;0.70;;
40945;SDS011;55635;50.264;11.918;2023-11-19T03:56:39;0.47;;;0.47;;
40945;SDS011;55635;50.264;11.918;2023-11-19T03:59:20;0.65;;;0.65;;
40945;SDS011;55635;50.264;11.918;2023-11-19T04:02:01;0.57;;;0.57;;
40945;SDS011;55635;50.264;11.918;2023-11-19T04:04:42;0.60;;;0.60;;
40945;SDS011;55635;50.264;11.918;2023-11-19T04:07:23;0.60;;;0.60;;
40945;SDS011;55635;50.264;11.918;2023-11-19T04:10:04;0.52;;;0.52;;
40945;SDS011;55635;50.264;11.918;2023-11-19T04:12:46;1.88;;;0.52;;
40945;SDS011;55635;50.264;11.918;2023-11-19T04:15:27;1.65;;;0.70;;
40945;SDS011;55635;50.264;11.918;2023-11-19T04:18:08;0.50;;;0.50;;
40945;SDS011;55635;50.264;11.918;2023-11-19T04:20:49;0.82;;;0.80;;
40945;SDS011;55635;50.264;11.918;2023-11-19T04:23:31;2.25;;;0.70;;
40945;SDS011;55635;50.264;11.918;2023-11-19T04:26:11;0.80;;;0.80;;
40945;SDS011;55635;50.264;11.918;2023-11-19T04:28:52;1.10;;;1.00;;
40945;SDS011;55635;50.264;11.918;2023-11-19T04:31:34;0.77;;;0.77;;
40945;SDS011;55635;50.264;11.918;2023-11-19T04:34:15;0.80;;;0.75;;
40945;SDS011;55635;50.264;11.918;2023-11-19T04:36:56;0.70;;;0.70;;
40945;SDS011;55635;50.264;11.918;2023-11-19T04:39:36;0.70;;;0.70;;
40945;SDS011;55635;50.264;11.918;2023-11-19T04:42:17;0.82;;;0.73;;
40945;SDS011;55635;50.264;11.918;2023-11-19T04:44:58;2.00;;;1.02;;
40945;SDS011;55635;50.264;11.918;2023-11-19T04:47:39;0.85;;;0.85;;
40945;SDS011;55635;50.264;11.918;2023-11-19T04:50:20;1.90;;;1.27;;
40945;SDS011;55635;50.264;11.918;2023-11-19T04:53:10;1.00;;;1.00;;
40945;SDS011;55635;50.264;11.918;2023-11-19T04:55:52;0.73;;;0.73;;
40945;SDS011;55635;50.264;11.918;2023-11-19T04:58:32;2.75;;;1.17;;
40945;SDS011;55635;50.264;11.918;2023-11-19T05:01:14;0.80;;;0.80;;
40945;SDS011;55635;50.264;11.918;2023-11-19T05:03:58;0.70;;;0.70;;
40945;SDS011;55635;50.264;11.918;2023-11-19T05:06:39;0.88;;;0.88;;
40945;SDS011;55635;50.264;11.918;2023-11-19T05:09:20;1.17;;;1.08;;
40945;SDS011;55635;50.264;11.918;2023-11-19T05:12:01;1.08;;;0.88;;
40945;SDS011;55635;50.264;11.918;2023-11-19T05:14:42;1.08;;;1.02;;
40945;SDS011;55635;50.264;11.918;2023-11-19T05:17:29;1.73;;;0.90;;
40945;SDS011;55635;50.264;11.918;2023-11-19T05:20:10;0.70;;;0.65;;
40945;SDS011;55635;50.264;11.918;2023-11-19T05:22:53;0.90;;;0.85;;
40945;SDS011;55635;50.264;11.918;2023-11-19T05:25:34;0.88;;;0.88;;
40945;SDS011;55635;50.264;11.918;2023-11-19T05:28:17;1.63;;;1.02;;
40945;SDS011;55635;50.264;11.918;2023-11-19T05:30:58;1.00;;;1.00;;
40945;SDS011;55635;50.264;11.918;2023-11-19T05:33:39;1.42;;;1.30;;
40945;SDS011;55635;50.264;11.918;2023-11-19T05:36:20;1.67;;;1.52;;
40945;SDS011;55635;50.264;11.918;2023-11-19T05:39:01;1.00;;;1.00;;
40945;SDS011;55635;50.264;11.918;2023-11-19T05:41:43;1.48;;;1.38;;
40945;SDS011;55635;50.264;11.918;2023-11-19T05:44:24;2.08;;;1.40;;
40945;SDS011;55635;50.264;11.918;2023-11-19T05:47:05;2.00;;;1.90;;
40945;SDS011;55635;50.264;11.918;2023-11-19T05:49:46;1.50;;;1.40;;
40945;SDS011;55635;50.264;11.918;2023-11-19T05:52:26;2.03;;;1.83;;
40945;SDS011;55635;50.264;11.918;2023-11-19T05:55:10;2.25;;;2.13;;
40945;SDS011;55635;50.264;11.918;2023-11-19T05:57:50;1.92;;;1.70;;
40945;SDS011;55635;50.264;11.918;2023-11-19T06:00:32;3.25;;;2.08;;
40945;SDS011;55635;50.264;11.918;2023-11-19T06:03:13;2.03;;;1.73;;
40945;SDS011;55635;50.264;11.918;2023-11-19T06:05:53;1.83;;;1.73;;
40945;SDS011;55635;50.264;11.918;2023-11-19T06:08:34;1.75;;;1.65;;
40945;SDS011;55635;50.264;11.918;2023-11-19T06:11:15;2.00;;;1.80;;
40945;SDS011;55635;50.264;11.918;2023-11-19T06:13:58;2.15;;;1.95;;
40945;SDS011;55635;50.264;11.918;2023-11-19T06:16:39;1.88;;;1.77;;
40945;SDS011;55635;50.264;11.918;2023-11-19T06:19:20;2.30;;;1.88;;
40945;SDS011;55635;50.264;11.918;2023-11-19T06:22:01;1.40;;;1.30;;
40945;SDS011;55635;50.264;11.918;2023-11-19T06:24:42;0.98;;;0.98;;
40945;SDS011;55635;50.264;11.918;2023-11-19T06:27:23;1.23;;;1.13;;
40945;SDS011;55635;50.264;11.918;2023-11-19T06:30:04;1.10;;;1.02;;
40945;SDS011;55635;50.264;11.918;2023-11-19T06:32:46;1.30;;;1.20;;
40945;SDS011;55635;50.264;11.918;2023-11-19T06:35:27;0.80;;;0.80;;
40945;SDS011;55635;50.264;11.918;2023-11-19T06:38:15;1.10;;;1.00;;
40945;SDS011;55635;50.264;11.918;2023-11-19T06:40:56;1.05;;;1.02;;
40945;SDS011;55635;50.264;11.918;2023-11-19T06:43:37;0.85;;;0.85;;
40945;SDS011;55635;50.264;11.918;2023-11-19T06:46:19;1.10;;;1.00;;
40945;SDS011;55635;50.264;11.918;2023-11-19T06:49:00;1.10;;;1.00;;
40945;SDS011;55635;50.264;11.918;2023-11-19T06:51:41;1.17;;;1.10;;
40945;SDS011;55635;50.264;11.918;2023-11-19T06:54:24;1.20;;;1.10;;
40945;SDS011;55635;50.264;11.918;2023-11-19T06:57:05;0.85;;;0.85;;
40945;SDS011;55635;50.264;11.918;2023-11-19T06:59:46;1.52;;;1.15;;
40945;SDS011;55635;50.264;11.918;2023-11-19T07:02:27;1.50;;;1.17;;
40945;SDS011;55635;50.264;11.918;2023-11-19T07:05:08;1.30;;;1.20;;
40945;SDS011;55635;50.264;11.918;2023-11-19T07:07:49;1.27;;;1.17;;
40945;SDS011;55635;50.264;11.918;2023-11-19T07:10:30;1.50;;;1.40;;
40945;SDS011;55635;50.264;11.918;2023-11-19T07:13:14;1.90;;;1.67;;
40945;SDS011;55635;50.264;11.918;2023-11-19T07:15:58;2.72;;;1.80;;
40945;SDS011;55635;50.264;11.918;2023-11-19T07:18:39;1.95;;;1.85;;
40945;SDS011;55635;50.264;11.918;2023-11-19T07:21:20;1.58;;;1.40;;
40945;SDS011;55635;50.264;11.918;2023-11-19T07:24:01;2.08;;;1.88;;
40945;SDS011;55635;50.264;11.918;2023-11-19T07:26:43;2.53;;;1.92;;
40945;SDS011;55635;50.264;11.918;2023-11-19T07:29:25;2.50;;;2.30;;
40945;SDS011;55635;50.264;11.918;2023-11-19T07:32:06;2.72;;;2.33;;
40945;SDS011;55635;50.264;11.918;2023-11-19T07:34:48;3.30;;;2.25;;
40945;SDS011;55635;50.264;11.918;2023-11-19T07:37:29;2.83;;;2.47;;
40945;SDS011;55635;50.264;11.918;2023-11-19T07:40:10;3.42;;;3.13;;
40945;SDS011;55635;50.264;11.918;2023-11-19T07:42:51;5.28;;;3.70;;
40945;SDS011;55635;50.264;11.918;2023-11-19T07:45:32;4.03;;;3.05;;
40945;SDS011;55635;50.264;11.918;2023-11-19T07:48:14;3.38;;;3.08;;
40945;SDS011;55635;50.264;11.918;2023-11-19T07:50:55;8.02;;;4.20;;
40945;SDS011;55635;50.264;11.918;2023-11-19T07:53:37;4.90;;;3.83;;
40945;SDS011;55635;50.264;11.918;2023-11-19T07:56:18;4.40;;;3.85;;
40945;SDS011;55635;50.264;11.918;2023-11-19T07:58:59;3.90;;;3.50;;
40945;SDS011;55635;50.264;11.918;2023-11-19T08:01:40;3.95;;;3.53;;
40945;SDS011;55635;50.264;11.918;2023-11-19T08:04:21;3.78;;;3.47;;
40945;SDS011;55635;50.264;11.918;2023-11-19T08:07:02;2.97;;;2.60;;
40945;SDS011;55635;50.264;11.918;2023-11-19T08:09:43;2.50;;;2.30;;
40945;SDS011;55635;50.264;11.918;2023-11-19T08:12:24;2.47;;;2.28;;
40945;SDS011;55635;50.264;11.918;2023-11-19T08:15:06;2.72;;;2.47;;
40945;SDS011;55635;50.264;11.918;2023-11-19T08:17:47;2.63;;;2.20;;
40945;SDS011;55635;50.264;11.918;2023-11-19T08:20:28;2.72;;;2.33;;
40945;SDS011;55635;50.264;11.918;2023-11-19T08:23:09;2.42;;;2.22;;
40945;SDS011;55635;50.264;11.918;2023-11-19T08:25:50;2.10;;;1.90;;
40945;SDS011;55635;50.264;11.918;2023-11-19T08:28:32;1.63;;;1.52;;
40945;SDS011;55635;50.264;11.918;2023-11-19T08:31:14;1.77;;;1.67;;
40945;SDS011;55635;50.264;11.918;2023-11-19T08:33:55;1.40;;;1.30;;
40945;SDS011;55635;50.264;11.918;2023-11-19T08:36:36;1.08;;;0.98;;
40945;SDS011;55635;50.264;11.918;2023-11-19T08:39:17;1.55;;;1.45;;
40945;SDS011;55635;50.264;11.918;2023-11-19T08:41:58;1.50;;;1.40;;
40945;SDS011;55635;50.264;11.918;2023-11-19T08:44:39;1.83;;;1.65;;
40945;SDS011;55635;50.264;11.918;2023-11-19T08:47:24;2.17;;;2.00;;
40945;SDS011;55635;50.264;11.918;2023-11-19T08:50:05;3.58;;;2.60;;
40945;SDS011;55635;50.264;11.918;2023-11-19T08:52:46;2.58;;;2.38;;
40945;SDS011;55635;50.264;11.918;2023-11-19T08:55:27;3.30;;;3.00;;
40945;SDS011;55635;50.264;11.918;2023-11-19T08:58:08;3.53;;;2.83;;
40945;SDS011;55635;50.264;11.918;2023-11-19T09:00:49;2.95;;;2.75;;
40945;SDS011;55635;50.264;11.918;2023-11-19T09:03:31;2.83;;;2.45;;
40945;SDS011;55635;50.264;11.918;2023-11-19T09:06:15;2.85;;;2.00;;
40945;SDS011;55635;50.264;11.918;2023-11-19T09:08:56;7.20;;;2.42;;
40945;SDS011;55635;50.264;11.918;2023-11-19T09:11:40;3.55;;;1.70;;
40945;SDS011;55635;50.264;11.918;2023-11-19T09:16:20;1.50;;;1.40;;
40945;SDS011;55635;50.264;11.918;2023-11-19T09:19:01;1.70;;;1.33;;
40945;SDS011;55635;50.264;11.918;2023-11-19T09:21:43;3.55;;;1.13;;
40945;SDS011;55635;50.264;11.918;2023-11-19T09:24:23;0.93;;;0.82;;
40945;SDS011;55635;50.264;11.918;2023-11-19T09:27:04;3.70;;;1.00;;
40945;SDS011;55635;50.264;11.918;2023-11-19T09:29:45;2.92;;;1.08;;
40945;SDS011;55635;50.264;11.918;2023-11-19T09:32:28;1.95;;;0.90;;
40945;SDS011;55635;50.264;11.918;2023-11-19T09:35:09;3.33;;;0.77;;
40945;SDS011;55635;50.264;11.918;2023-11-19T09:37:53;2.88;;;0.80;;
40945;SDS011;55635;50.264;11.918;2023-11-19T09:40:34;1.77;;;1.05;;
40945;SDS011;55635;50.264;11.918;2023-11-19T09:43:15;1.88;;;0.95;;
40945;SDS011;55635;50.264;11.918;2023-11-19T09:45:57;1.40;;;0.77;;
40945;SDS011;55635;50.264;11.918;2023-11-19T09:48:46;2.17;;;0.90;;
40945;SDS011;55635;50.264;11.918;2023-11-19T09:51:32;2.78;;;0.73;;
40945;SDS011;55635;50.264;11.918;2023-11-19T09:54:13;2.55;;;0.70;;
40945;SDS011;55635;50.264;11.918;2023-11-19T09:56:55;2.50;;;1.10;;
40945;SDS011;55635;50.264;11.918;2023-11-19T09:59:43;3.97;;;0.80;;
40945;SDS011;55635;50.264;11.918;2023-11-19T10:02:26;2.08;;;0.95;;
40945;SDS011;55635;50.264;11.918;2023-11-19T10:05:11;2.15;;;0.68;;
40945;SDS011;55635;50.264;11.918;2023-11-19T10:07:54;2.63;;;0.82;;
40945;SDS011;55635;50.264;11.918;2023-11-19T10:10:35;3.03;;;1.05;;
40945;SDS011;55635;50.264;11.918;2023-11-19T10:13:17;3.22;;;1.30;;
40945;SDS011;55635;50.264;11.918;2023-11-19T10:15:58;3.40;;;1.05;;
40945;SDS011;55635;50.264;11.918;2023-11-19T10:18:47;4.53;;;1.02;;
40945;SDS011;55635;50.264;11.918;2023-11-19T10:21:32;2.55;;;0.70;;
40945;SDS011;55635;50.264;11.918;2023-11-19T10:24:14;4.22;;;0.90;;
40945;SDS011;55635;50.264;11.918;2023-11-19T10:26:56;2.38;;;0.68;;
40945;SDS011;55635;50.264;11.918;2023-11-19T10:29:37;2.00;;;0.82;;
40945;SDS011;55635;50.264;11.918;2023-11-19T10:32:18;3.78;;;0.90;;
40945;SDS011;55635;50.264;11.918;2023-11-19T10:35:05;1.42;;;0.90;;
40945;SDS011;55635;50.264;11.918;2023-11-19T10:37:47;3.85;;;0.85;;
40945;SDS011;55635;50.264;11.918;2023-11-19T10:40:37;2.83;;;0.82;;
40945;SDS011;55635;50.264;11.918;2023-11-19T10:43:21;3.22;;;1.00;;
40945;SDS011;55635;50.264;11.918;2023-11-19T10:46:10;4.70;;;1.48;;
40945;SDS011;55635;50.264;11.918;2023-11-19T10:48:52;4.93;;;0.90;;
40945;SDS011;55635;50.264;11.918;2023-11-19T10:51:33;1.77;;;0.65;;
40945;SDS011;55635;50.264;11.918;2023-11-19T10:54:15;2.45;;;1.23;;
40945;SDS011;55635;50.264;11.918;2023-11-19T10:56:59;3.13;;;0.73;;
40945;SDS011;55635;50.264;11.918;2023-11-19T10:59:41;4.10;;;0.82;;
40945;SDS011;55635;50.264;11.918;2023-11-19T11:02:25;3.33;;;0.90;;
40945;SDS011;55635;50.264;11.918;2023-11-19T11:05:08;3.60;;;0.90;;
40945;SDS011;55635;50.264;11.918;2023-11-19T11:07:52;3.13;;;1.10;;
40945;SDS011;55635;50.264;11.918;2023-11-19T11:10:39;2.75;;;1.10;;
40945;SDS011;55635;50.264;11.918;2023-11-19T11:13:31;3.53;;;0.82;;
40945;SDS011;55635;50.264;11.918;2023-11-19T11:16:13;4.13;;;0.85;;
40945;SDS011;55635;50.264;11.918;2023-11-19T11:18:55;2.72;;;0.82;;
40945;SDS011;55635;50.264;11.918;2023-11-19T11:21:37;2.65;;;1.02;;
40945;SDS011;55635;50.264;11.918;2023-11-19T11:33:26;4.55;;;1.02;;
40945;SDS011;55635;50.264;11.918;2023-11-19T11:36:22;3.80;;;1.02;;
40945;SDS011;55635;50.264;11.918;2023-11-19T11:39:03;4.50;;;1.50;;
40945;SDS011;55635;50.264;11.918;2023-11-19T11:41:47;5.53;;;1.08;;
40945;SDS011;55635;50.264;11.918;2023-11-19T11:45:04;4.53;;;1.30;;
40945;SDS011;55635;50.264;11.918;2023-11-19T11:50:46;4.68;;;1.13;;
40945;SDS011;55635;50.264;11.918;2023-11-19T11:53:36;3.63;;;1.10;;
40945;SDS011;55635;50.264;11.918;2023-11-19T11:56:17;5.45;;;0.88;;
40945;SDS011;55635;50.264;11.918;2023-11-19T11:58:59;6.72;;;0.98;;
40945;SDS011;55635;50.264;11.918;2023-11-19T12:01:41;5.55;;;1.20;;
40945;SDS011;55635;50.264;11.918;2023-11-19T12:04:40;2.08;;;0.70;;
40945;SDS011;55635;50.264;11.918;2023-11-19T12:07:22;7.20;;;1.40;;
40945;SDS011;55635;50.264;11.918;2023-11-19T12:10:06;6.45;;;1.15;;
40945;SDS011;55635;50.264;11.918;2023-11-19T12:12:48;2.45;;;1.05;;
40945;SDS011;55635;50.264;11.918;2023-11-19T12:15:33;5.47;;;1.55;;
40945;SDS011;55635;50.264;11.918;2023-11-19T12:18:34;5.63;;;1.10;;
40945;SDS011;55635;50.264;11.918;2023-11-19T12:21:28;3.28;;;1.23;;
40945;SDS011;55635;50.264;11.918;2023-11-19T12:24:10;8.27;;;1.20;;
40945;SDS011;55635;50.264;11.918;2023-11-19T12:26:52;2.75;;;0.88;;
40945;SDS011;55635;50.264;11.918;2023-11-19T12:29:43;4.95;;;1.30;;
40945;SDS011;55635;50.264;11.918;2023-11-19T12:32:24;8.23;;;1.50;;
40945;SDS011;55635;50.264;11.918;2023-11-19T12:35:05;3.35;;;1.00;;
40945;SDS011;55635;50.264;11.918;2023-11-19T12:37:51;4.47;;;1.35;;
40945;SDS011;55635;50.264;11.918;2023-11-19T12:40:33;7.70;;;1.20;;
40945;SDS011;55635;50.264;11.918;2023-11-19T12:43:22;10.80;;;2.35;;
40945;SDS011;55635;50.264;11.918;2023-11-19T12:46:16;2.97;;;1.20;;
40945;SDS011;55635;50.264;11.918;2023-11-19T12:48:57;7.38;;;1.45;;
40945;SDS011;55635;50.264;11.918;2023-11-19T12:51:38;4.75;;;1.23;;
40945;SDS011;55635;50.264;11.918;2023-11-19T12:54:19;4.70;;;1.13;;
40945;SDS011;55635;50.264;11.918;2023-11-19T12:56:59;7.13;;;1.63;;
40945;SDS011;55635;50.264;11.918;2023-11-19T12:59:40;4.95;;;1.60;;
40945;SDS011;55635;50.264;11.918;2023-11-19T13:02:21;8.73;;;1.23;;
40945;SDS011;55635;50.264;11.918;2023-11-19T13:08:13;3.95;;;1.33;;
40945;SDS011;55635;50.264;11.918;2023-11-19T13:10:54;4.78;;;1.17;;
40945;SDS011;55635;50.264;11.918;2023-11-19T13:16:36;4.70;;;1.45;;
40945;SDS011;55635;50.264;11.918;2023-11-19T13:19:22;3.42;;;1.13;;
40945;SDS011;55635;50.264;11.918;2023-11-19T13:22:04;4.10;;;1.58;;
40945;SDS011;55635;50.264;11.918;2023-11-19T13:24:45;6.45;;;1.48;;
40945;SDS011;55635;50.264;11.918;2023-11-19T13:27:26;5.30;;;1.45;;
40945;SDS011;55635;50.264;11.918;2023-11-19T13:30:07;7.78;;;1.38;;
40945;SDS011;55635;50.264;11.918;2023-11-19T13:32:49;7.93;;;1.40;;
40945;SDS011;55635;50.264;11.918;2023-11-19T13:35:35;8.57;;;1.52;;
40945;SDS011;55635;50.264;11.918;2023-11-19T13:38:16;10.90;;;1.77;;
40945;SDS011;55635;50.264;11.918;2023-11-19T13:40:57;5.53;;;1.40;;
40945;SDS011;55635;50.264;11.918;2023-11-19T13:43:39;7.97;;;1.60;;
40945;SDS011;55635;50.264;11.918;2023-11-19T13:46:20;8.43;;;1.45;;
40945;SDS011;55635;50.264;11.918;2023-11-19T13:49:01;5.90;;;1.10;;
40945;SDS011;55635;50.264;11.918;2023-11-19T13:51:43;6.63;;;1.90;;
40945;SDS011;55635;50.264;11.918;2023-11-19T13:54:25;6.95;;;1.38;;
40945;SDS011;55635;50.264;11.918;2023-11-19T13:57:06;4.40;;;1.17;;
40945;SDS011;55635;50.264;11.918;2023-11-19T13:59:47;6.80;;;1.73;;
40945;SDS011;55635;50.264;11.918;2023-11-19T14:02:29;7.05;;;1.35;;
40945;SDS011;55635;50.264;11.918;2023-11-19T14:05:10;15.38;;;1.45;;
40945;SDS011;55635;50.264;11.918;2023-11-19T14:07:57;7.57;;;1.42;;
40945;SDS011;55635;50.264;11.918;2023-11-19T14:10:38;7.15;;;1.83;;
40945;SDS011;55635;50.264;11.918;2023-11-19T14:13:23;8.60;;;1.75;;
40945;SDS011;55635;50.264;11.918;2023-11-19T14:16:04;7.18;;;1.40;;
40945;SDS011;55635;50.264;11.918;2023-11-19T14:18:48;6.70;;;1.77;;
40945;SDS011;55635;50.264;11.918;2023-11-19T14:21:30;9.32;;;1.63;;
40945;SDS011;55635;50.264;11.918;2023-11-19T14:24:11;4.85;;;1.05;;
40945;SDS011;55635;50.264;11.918;2023-11-19T14:26:52;6.50;;;1.40;;
40945;SDS011;55635;50.264;11.918;2023-11-19T14:29:33;8.07;;;1.52;;
40945;SDS011;55635;50.264;11.918;2023-11-19T14:32:15;7.32;;;1.73;;
40945;SDS011;55635;50.264;11.918;2023-11-19T14:34:56;7.40;;;1.58;;
40945;SDS011;55635;50.264;11.918;2023-11-19T14:37:41;9.07;;;2.15;;
40945;SDS011;55635;50.264;11.918;2023-11-19T14:40:22;7.57;;;1.63;;
40945;SDS011;55635;50.264;11.918;2023-11-19T14:43:03;9.82;;;1.77;;
40945;SDS011;55635;50.264;11.918;2023-11-19T14:45:45;7.68;;;1.77;;
40945;SDS011;55635;50.264;11.918;2023-11-19T14:48:26;11.10;;;1.85;;
40945;SDS011;55635;50.264;11.918;2023-11-19T14:51:07;6.63;;;1.52;;
40945;SDS011;55635;50.264;11.918;2023-11-19T14:53:48;6.40;;;1.63;;
40945;SDS011;55635;50.264;11.918;2023-11-19T14:56:29;9.88;;;1.55;;
40945;SDS011;55635;50.264;11.918;2023-11-19T14:59:10;10.75;;;1.60;;
40945;SDS011;55635;50.264;11.918;2023-11-19T15:01:51;11.70;;;1.83;;
40945;SDS011;55635;50.264;11.918;2023-11-19T15:04:32;7.88;;;1.63;;
40945;SDS011;55635;50.264;11.918;2023-11-19T15:07:14;6.80;;;1.58;;
40945;SDS011;55635;50.264;11.918;2023-11-19T15:09:55;9.10;;;1.85;;
40945;SDS011;55635;50.264;11.918;2023-11-19T15:12:37;9.45;;;1.20;;
40945;SDS011;55635;50.264;11.918;2023-11-19T15:15:20;9.48;;;1.52;;
40945;SDS011;55635;50.264;11.918;2023-11-19T15:18:02;8.75;;;1.50;;
40945;SDS011;55635;50.264;11.918;2023-11-19T15:20:43;4.53;;;1.40;;
40945;SDS011;55635;50.264;11.918;2023-11-19T15:23:27;8.52;;;1.85;;
40945;SDS011;55635;50.264;11.918;2023-11-19T15:26:09;10.95;;;1.73;;
40945;SDS011;55635;50.264;11.918;2023-11-19T15:28:50;10.70;;;1.88;;
40945;SDS011;55635;50.264;11.918;2023-11-19T15:31:36;5.88;;;1.40;;
40945;SDS011;55635;50.264;11.918;2023-11-19T15:34:17;12.15;;;1.65;;
40945;SDS011;55635;50.264;11.918;2023-11-19T15:36:59;11.60;;;1.80;;
40945;SDS011;55635;50.264;11.918;2023-11-19T15:39:40;8.20;;;1.63;;
40945;SDS011;55635;50.264;11.918;2023-11-19T15:42:21;7.00;;;2.03;;
40945;SDS011;55635;50.264;11.918;2023-11-19T15:45:02;9.32;;;2.58;;
40945;SDS011;55635;50.264;11.918;2023-11-19T15:47:45;7.72;;;1.92;;
40945;SDS011;55635;50.264;11.918;2023-11-19T15:50:26;9.90;;;1.90;;
40945;SDS011;55635;50.264;11.918;2023-11-19T15:53:09;7.22;;;1.60;;
40945;SDS011;55635;50.264;11.918;2023-11-19T15:55:51;8.77;;;1.38;;
40945;SDS011;55635;50.264;11.918;2023-11-19T15:58:33;5.57;;;1.33;;
40945;SDS011;55635;50.264;11.918;2023-11-19T16:01:14;9.23;;;2.17;;
40945;SDS011;55635;50.264;11.918;2023-11-19T16:03:55;5.80;;;1.63;;
40945;SDS011;55635;50.264;11.918;2023-11-19T16:06:36;6.90;;;1.48;;
40945;SDS011;55635;50.264;11.918;2023-11-19T16:09:18;15.25;;;2.50;;
40945;SDS011;55635;50.264;11.918;2023-11-19T16:11:59;7.70;;;1.67;;
40945;SDS011;55635;50.264;11.918;2023-11-19T16:14:40;9.20;;;2.00;;
40945;SDS011;55635;50.264;11.918;2023-11-19T16:17:21;9.40;;;2.17;;
40945;SDS011;55635;50.264;11.918;2023-11-19T16:20:03;7.78;;;1.92;;
40945;SDS011;55635;50.264;11.918;2023-11-19T16:22:46;11.85;;;2.40;;